createdAt,value
2018-02-04T00:02:25.776Z,69.67
2018-02-04T00:04:53.110Z,68.97
2018-02-04T00:07:19.718Z,69.29
2018-02-04T00:09:46.294Z,69.35
2018-02-04T00:12:12.924Z,70.40
2018-02-04T00:14:39.609Z,71.04
2018-02-04T00:17:07.177Z,70.96
2018-02-04T00:19:33.832Z,71.25
2018-02-04T00:22:00.475Z,71.37
2018-02-04T00:24:27.121Z,71.04
2018-02-04T00:26:54.511Z,70.83
2018-02-04T00:29:21.117Z,70.57
2018-02-04T00:31:48.519Z,70.66
2018-02-04T00:34:15.129Z,70.58
2018-02-04T00:36:41.750Z,70.31
2018-02-04T00:39:08.364Z,70.70
2018-02-04T00:41:34.991Z,71.09
2018-02-04T00:44:02.511Z,70.96
2018-02-04T00:46:29.853Z,71.10
2018-02-04T00:48:56.457Z,71.54
2018-02-04T00:51:23.032Z,71.89
2018-02-04T00:53:49.621Z,72.03
2018-02-04T00:56:16.234Z,72.14
2018-02-04T00:58:42.830Z,72.20
2018-02-04T01:01:10.173Z,71.87
2018-02-04T01:03:37.505Z,72.17
2018-02-04T01:06:04.186Z,72.12
2018-02-04T01:08:30.785Z,71.95
2018-02-04T01:10:57.451Z,72.28
2018-02-04T01:13:24.109Z,71.42
2018-02-04T01:15:50.678Z,70.86
2018-02-04T01:18:17.278Z,70.86
2018-02-04T01:20:43.898Z,69.40
2018-02-04T01:23:10.457Z,69.47
2018-02-04T01:25:37.052Z,70.15
2018-02-04T01:28:04.443Z,70.98
2018-02-04T01:30:31.172Z,71.18
2018-02-04T01:32:57.724Z,71.07
2018-02-04T01:35:24.301Z,71.52
2018-02-04T01:37:50.909Z,72.34
2018-02-04T01:40:17.518Z,72.84
2018-02-04T01:42:44.166Z,71.75
2018-02-04T01:45:10.729Z,70.93
2018-02-04T01:47:37.280Z,70.57
2018-02-04T01:50:03.918Z,70.72
2018-02-04T01:52:30.481Z,71.22
2018-02-04T01:54:57.094Z,71.74
2018-02-04T01:57:23.723Z,71.43
2018-02-04T01:59:50.298Z,70.73
2018-02-04T02:02:16.892Z,70.82
2018-02-04T02:04:43.469Z,71.23
2018-02-04T02:07:10.037Z,71.46
2018-02-04T02:09:36.651Z,71.09
2018-02-04T02:12:03.293Z,71.51
2018-02-04T02:14:30.631Z,71.83
2018-02-04T02:16:57.177Z,71.90
2018-02-04T02:19:24.550Z,70.98
2018-02-04T02:21:51.154Z,70.81
2018-02-04T02:24:17.732Z,70.20
2018-02-04T02:26:44.365Z,70.79
2018-02-04T02:29:11.714Z,71.86
2018-02-04T02:31:38.317Z,72.22
2018-02-04T02:34:04.903Z,71.96
2018-02-04T02:36:31.488Z,72.15
2018-02-04T02:38:58.089Z,72.32
2018-02-04T02:41:24.653Z,72.50
2018-02-04T02:43:52.000Z,72.59
2018-02-04T02:46:18.601Z,72.83
2018-02-04T02:48:45.177Z,72.57
2018-02-04T02:51:11.775Z,72.45
2018-02-04T02:53:38.423Z,72.17
2018-02-04T02:56:05.037Z,72.16
2018-02-04T02:58:31.591Z,72.02
2018-02-04T03:00:58.157Z,72.05
2018-02-04T03:03:24.755Z,72.29
2018-02-04T03:05:51.341Z,72.61
2018-02-04T03:08:17.985Z,72.84
2018-02-04T03:10:44.542Z,72.48
2018-02-04T03:13:11.200Z,72.77
2018-02-04T03:15:37.836Z,73.02
2018-02-04T03:18:04.430Z,73.13
2018-02-04T03:20:31.014Z,72.98
2018-02-04T03:22:57.582Z,72.80
2018-02-04T03:25:24.264Z,72.47
2018-02-04T03:27:50.851Z,72.79
2018-02-04T03:30:17.451Z,72.52
2018-02-04T03:32:44.046Z,72.48
2018-02-04T03:35:11.385Z,71.87
2018-02-04T03:37:37.919Z,72.21
2018-02-04T03:40:04.553Z,72.70
2018-02-04T03:42:31.173Z,72.33
2018-02-04T03:44:57.764Z,73.10
2018-02-04T03:47:24.324Z,73.38
2018-02-04T03:49:50.889Z,73.37
2018-02-04T03:52:17.499Z,73.35
2018-02-04T03:54:44.126Z,72.83
2018-02-04T03:57:10.709Z,72.92
2018-02-04T03:59:38.102Z,72.37
2018-02-04T04:02:04.685Z,71.50
2018-02-04T04:04:31.295Z,71.75
2018-02-04T04:06:57.873Z,72.56
2018-02-04T04:09:24.452Z,73.27
2018-02-04T04:11:51.114Z,73.59
2018-02-04T04:14:17.717Z,73.47
2018-02-04T04:16:44.280Z,73.45
2018-02-04T04:19:10.910Z,73.38
2018-02-04T04:21:38.282Z,73.44
2018-02-04T04:24:04.869Z,73.29
2018-02-04T04:26:31.546Z,73.20
2018-02-04T04:28:58.158Z,73.10
2018-02-04T04:31:25.491Z,73.35
2018-02-04T04:33:52.056Z,73.72
2018-02-04T04:36:18.641Z,74.06
2018-02-04T04:38:45.237Z,73.99
2018-02-04T04:41:11.866Z,74.07
2018-02-04T04:43:38.444Z,73.91
2018-02-04T04:46:08.518Z,73.86
2018-02-04T04:48:37.000Z,73.47
2018-02-04T04:51:04.330Z,73.20
2018-02-04T04:53:30.902Z,73.42
2018-02-04T04:55:58.227Z,73.15
2018-02-04T04:58:25.550Z,72.79
2018-02-04T05:00:52.093Z,72.82
2018-02-04T05:03:18.733Z,72.64
2018-02-04T05:05:45.344Z,73.14
2018-02-04T05:08:11.937Z,73.29
2018-02-04T05:10:38.530Z,73.30
2018-02-04T05:13:05.122Z,72.98
2018-02-04T05:15:32.463Z,73.07
2018-02-04T05:17:59.278Z,73.08
2018-02-04T05:20:25.872Z,72.88
2018-02-04T05:22:52.434Z,73.33
2018-02-04T05:25:19.041Z,73.59
2018-02-04T05:27:45.662Z,73.63
2018-02-04T05:30:12.270Z,73.82
2018-02-04T05:32:38.850Z,73.25
2018-02-04T05:35:05.432Z,71.79
2018-02-04T05:37:32.047Z,71.74
2018-02-04T05:39:58.665Z,71.64
2018-02-04T05:42:25.275Z,72.12
2018-02-04T05:44:51.896Z,72.97
2018-02-04T05:47:18.547Z,73.63
2018-02-04T05:49:46.099Z,74.04
2018-02-04T05:52:12.730Z,74.28
2018-02-04T05:54:39.321Z,74.45
2018-02-04T05:57:05.919Z,74.27
2018-02-04T05:59:32.510Z,74.14
2018-02-04T06:01:59.118Z,74.07
2018-02-04T06:04:25.712Z,74.08
2018-02-04T06:06:53.122Z,73.98
2018-02-04T06:09:19.689Z,74.09
2018-02-04T06:11:46.280Z,74.05
2018-02-04T06:14:12.910Z,74.01
2018-02-04T06:16:39.453Z,74.06
2018-02-04T06:19:06.396Z,72.62
2018-02-04T06:21:32.977Z,72.85
2018-02-04T06:24:00.522Z,72.38
2018-02-04T06:26:27.362Z,72.29
2018-02-04T06:28:53.950Z,73.34
2018-02-04T06:31:20.542Z,74.06
2018-02-04T06:33:47.173Z,74.14
2018-02-04T06:36:13.793Z,73.50
2018-02-04T06:38:40.405Z,73.34
2018-02-04T06:41:07.395Z,73.16
2018-02-04T06:43:33.954Z,73.44
2018-02-04T06:46:00.510Z,73.47
2018-02-04T06:48:27.187Z,73.31
2018-02-04T06:50:53.754Z,73.46
2018-02-04T06:53:20.406Z,73.66
2018-02-04T06:55:46.994Z,73.37
2018-02-04T06:58:14.427Z,73.58
2018-02-04T07:00:41.055Z,73.45
2018-02-04T07:03:08.401Z,73.60
2018-02-04T07:05:34.975Z,73.43
2018-02-04T07:08:01.614Z,72.98
2018-02-04T07:10:28.194Z,72.20
2018-02-04T07:12:55.522Z,71.91
2018-02-04T07:15:22.136Z,72.60
2018-02-04T07:17:48.714Z,72.55
2018-02-04T07:20:15.330Z,72.57
2018-02-04T07:22:42.690Z,72.72
2018-02-04T07:25:09.254Z,73.04
2018-02-04T07:27:35.838Z,72.99
2018-02-04T07:30:02.431Z,73.18
2018-02-04T07:32:29.009Z,72.73
2018-02-04T07:34:55.582Z,72.83
2018-02-04T07:37:22.134Z,72.93
2018-02-04T07:39:48.682Z,73.30
2018-02-04T07:42:15.268Z,73.66
2018-02-04T07:44:41.883Z,73.36
2018-02-04T07:47:08.604Z,72.75
2018-02-04T07:49:36.062Z,73.29
2018-02-04T07:52:02.798Z,72.55
2018-02-04T07:54:30.106Z,70.62
2018-02-04T07:56:56.691Z,68.68
2018-02-04T07:59:23.356Z,66.72
2018-02-04T08:01:49.918Z,65.87
2018-02-04T08:04:16.543Z,66.11
2018-02-04T08:06:43.175Z,66.58
2018-02-04T08:09:09.742Z,66.92
2018-02-04T08:11:36.451Z,67.52
2018-02-04T08:14:03.021Z,67.32
2018-02-04T08:16:29.694Z,67.19
2018-02-04T08:18:56.306Z,67.42
2018-02-04T08:21:23.701Z,66.98
2018-02-04T08:23:50.337Z,66.58
2018-02-04T08:26:16.916Z,65.80
2018-02-04T08:28:43.514Z,65.02
2018-02-04T08:31:10.125Z,65.06
2018-02-04T08:33:36.718Z,65.36
2018-02-04T08:36:03.354Z,65.47
2018-02-04T08:38:29.944Z,65.99
2018-02-04T08:40:57.270Z,66.45
2018-02-04T08:43:23.887Z,66.70
2018-02-04T08:45:50.546Z,66.64
2018-02-04T08:48:17.336Z,66.93
2018-02-04T08:50:44.018Z,64.40
2018-02-04T08:53:10.631Z,61.59
2018-02-04T08:55:37.281Z,57.52
2018-02-04T08:58:03.895Z,53.94
2018-02-04T09:00:30.587Z,46.86
2018-02-04T09:02:57.901Z,41.98
2018-02-04T09:05:24.486Z,38.90
2018-02-04T09:07:51.960Z,35.62
2018-02-04T09:10:18.601Z,32.91
2018-02-04T09:12:45.214Z,29.41
2018-02-04T09:15:12.591Z,30.30
2018-02-04T09:17:39.264Z,26.19
2018-02-04T09:20:05.925Z,24.37
2018-02-04T09:22:33.358Z,23.82
2018-02-04T09:24:59.967Z,25.72
2018-02-04T09:27:26.578Z,28.82
2018-02-04T09:29:53.893Z,26.83
2018-02-04T09:32:20.564Z,26.50
2018-02-04T09:34:47.153Z,27.13
2018-02-04T09:37:13.743Z,24.31
2018-02-04T09:39:41.095Z,21.08
2018-02-04T09:42:09.234Z,23.04
2018-02-04T09:44:35.843Z,22.93
2018-02-04T09:47:02.454Z,20.86
2018-02-04T09:49:29.054Z,19.86
2018-02-04T09:51:55.719Z,17.78
2018-02-04T09:54:23.063Z,14.12
2018-02-04T09:56:50.433Z,16.58
2018-02-04T09:59:17.749Z,15.43
2018-02-04T10:01:44.369Z,16.02
2018-02-04T10:04:10.969Z,15.03
2018-02-04T10:06:37.715Z,12.16
2018-02-04T10:09:04.365Z,13.91
2018-02-04T10:11:30.986Z,11.82
2018-02-04T10:13:58.615Z,11.66
2018-02-04T10:16:26.026Z,12.05
2018-02-04T10:18:52.960Z,15.24
2018-02-04T10:21:20.381Z,16.37
2018-02-04T10:23:47.054Z,16.01
2018-02-04T10:26:13.661Z,15.87
2018-02-04T10:28:40.450Z,14.16
2018-02-04T10:31:07.060Z,15.09
2018-02-04T10:33:33.770Z,14.39
2018-02-04T10:36:00.330Z,13.76
2018-02-04T10:38:27.010Z,13.22
2018-02-04T10:40:53.629Z,12.98
2018-02-04T10:43:20.291Z,13.73
2018-02-04T10:45:46.863Z,13.40
2018-02-04T10:48:13.482Z,14.22
2018-02-04T10:50:46.964Z,13.10
2018-02-04T10:53:13.573Z,14.24
2018-02-04T10:55:40.359Z,13.91
2018-02-04T10:58:06.935Z,13.98
2018-02-04T11:00:33.602Z,14.52
2018-02-04T11:03:00.206Z,18.90
2018-02-04T11:05:26.832Z,21.59
2018-02-04T11:07:53.472Z,24.29
2018-02-04T11:10:20.077Z,26.32
2018-02-04T11:12:46.718Z,28.92
2018-02-04T11:15:14.046Z,30.11
2018-02-04T11:17:40.661Z,32.00
2018-02-04T11:20:07.336Z,31.94
2018-02-04T11:22:33.979Z,32.17
2018-02-04T11:25:01.308Z,32.43
2018-02-04T11:27:28.004Z,31.89
2018-02-04T11:29:54.789Z,32.17
2018-02-04T11:32:24.412Z,32.45
2018-02-04T11:34:51.783Z,32.44
2018-02-04T11:37:18.390Z,32.95
2018-02-04T11:39:45.123Z,33.14
2018-02-04T11:42:11.710Z,32.77
2018-02-04T11:44:39.334Z,32.73
2018-02-04T11:47:06.135Z,32.92
2018-02-04T11:49:32.957Z,31.64
2018-02-04T11:52:00.287Z,33.21
2018-02-04T11:54:26.913Z,34.99
2018-02-04T11:56:53.650Z,36.27
2018-02-04T11:59:21.038Z,37.01
2018-02-04T12:01:48.411Z,38.54
2018-02-04T12:04:15.122Z,37.83
2018-02-04T12:06:41.781Z,37.64
2018-02-04T12:09:09.136Z,37.39
2018-02-04T12:11:36.508Z,37.78
2018-02-04T12:14:03.346Z,38.02
2018-02-04T12:16:29.953Z,40.25
2018-02-04T12:18:56.528Z,40.29
2018-02-04T12:21:23.262Z,40.60
2018-02-04T12:23:49.900Z,40.87
2018-02-04T12:26:16.461Z,39.98
2018-02-04T12:28:43.178Z,40.93
2018-02-04T12:31:09.741Z,40.57
2018-02-04T12:33:36.424Z,40.52
2018-02-04T12:36:03.115Z,41.38
2018-02-04T12:38:30.624Z,40.96
2018-02-04T12:40:57.979Z,40.71
2018-02-04T12:43:24.601Z,41.26
2018-02-04T12:45:51.250Z,40.39
2018-02-04T12:48:17.917Z,40.50
2018-02-04T12:50:44.552Z,40.11
2018-02-04T12:53:11.938Z,39.85
2018-02-04T12:55:38.554Z,40.21
2018-02-04T12:58:05.212Z,40.31
2018-02-04T13:00:31.844Z,40.45
2018-02-04T13:02:59.457Z,40.07
2018-02-04T13:05:26.103Z,40.90
2018-02-04T13:07:52.705Z,42.17
2018-02-04T13:10:19.353Z,41.38
2018-02-04T13:12:46.006Z,41.25
2018-02-04T13:15:12.638Z,40.68
2018-02-04T13:17:40.027Z,41.18
2018-02-04T13:20:06.633Z,41.63
2018-02-04T13:22:33.287Z,41.55
2018-02-04T13:24:59.926Z,42.25
2018-02-04T13:27:26.551Z,41.75
2018-02-04T13:29:53.167Z,42.24
2018-02-04T13:32:19.753Z,41.46
2018-02-04T13:34:46.418Z,41.33
2018-02-04T13:37:13.043Z,40.83
2018-02-04T13:39:39.657Z,41.55
2018-02-04T13:42:06.249Z,41.33
2018-02-04T13:44:32.927Z,42.57
2018-02-04T13:46:59.627Z,42.45
2018-02-04T13:49:26.255Z,43.24
2018-02-04T13:51:53.795Z,42.78
2018-02-04T13:54:20.453Z,43.20
2018-02-04T13:56:47.116Z,43.15
2018-02-04T13:59:13.830Z,42.15
2018-02-04T14:01:40.434Z,41.42
2018-02-04T14:04:07.170Z,42.13
2018-02-04T14:06:33.771Z,42.06
2018-02-04T14:09:01.113Z,41.88
2018-02-04T14:11:28.682Z,40.98
2018-02-04T14:13:56.116Z,41.59
2018-02-04T14:16:22.758Z,43.00
2018-02-04T14:18:49.433Z,42.44
2018-02-04T14:21:16.828Z,41.50
2018-02-04T14:23:43.443Z,41.91
2018-02-04T14:26:10.255Z,42.26
2018-02-04T14:28:36.940Z,43.03
2018-02-04T14:31:03.658Z,42.57
2018-02-04T14:33:30.511Z,43.31
2018-02-04T14:35:57.152Z,42.76
2018-02-04T14:38:23.758Z,42.51
2018-02-04T14:40:50.379Z,42.58
2018-02-04T14:43:17.826Z,43.06
2018-02-04T14:45:44.415Z,42.73
2018-02-04T14:48:12.862Z,43.17
2018-02-04T14:50:39.505Z,43.92
2018-02-04T14:53:06.130Z,43.39
2018-02-04T14:55:33.485Z,43.88
2018-02-04T14:58:00.125Z,43.65
2018-02-04T15:00:27.123Z,43.42
2018-02-04T15:02:53.733Z,43.31
2018-02-04T15:05:21.135Z,43.26
2018-02-04T15:07:47.782Z,44.51
2018-02-04T15:10:15.135Z,44.66
2018-02-04T15:12:42.506Z,44.52
2018-02-04T15:15:09.883Z,42.05
2018-02-04T15:17:36.547Z,42.36
2018-02-04T15:20:03.169Z,43.83
2018-02-04T15:22:29.855Z,44.13
2018-02-04T15:24:56.493Z,43.72
2018-02-04T15:27:23.134Z,44.53
2018-02-04T15:29:50.526Z,44.25
2018-02-04T15:32:17.158Z,44.78
2018-02-04T15:34:43.830Z,44.09
2018-02-04T15:37:10.491Z,42.70
2018-02-04T15:39:37.171Z,43.17
2018-02-04T15:42:04.070Z,44.98
2018-02-04T15:44:30.678Z,45.24
2018-02-04T15:46:57.289Z,44.69
2018-02-04T15:49:24.887Z,44.40
2018-02-04T15:51:51.533Z,44.75
2018-02-04T15:54:18.216Z,46.44
2018-02-04T15:56:45.580Z,45.42
2018-02-04T15:59:12.234Z,45.69
2018-02-04T16:01:38.942Z,46.60
2018-02-04T16:04:06.394Z,46.37
2018-02-04T16:06:33.724Z,47.98
2018-02-04T16:09:00.344Z,48.47
2018-02-04T16:11:27.068Z,49.02
2018-02-04T16:13:53.655Z,49.62
2018-02-04T16:16:20.403Z,49.67
2018-02-04T16:18:47.727Z,51.00
2018-02-04T16:21:14.453Z,50.54
2018-02-04T16:23:41.092Z,50.68
2018-02-04T16:26:07.869Z,51.47
2018-02-04T16:28:35.229Z,50.91
2018-02-04T16:31:02.612Z,56.87
2018-02-04T16:33:29.230Z,62.65
2018-02-04T16:35:55.838Z,65.35
2018-02-04T16:38:22.540Z,67.70
2018-02-04T16:40:49.137Z,69.05
2018-02-04T16:43:15.825Z,70.15
2018-02-04T16:45:42.446Z,70.33
2018-02-04T16:48:09.085Z,71.21
2018-02-04T16:50:35.915Z,71.63
2018-02-04T16:53:02.513Z,71.95
2018-02-04T16:55:29.256Z,72.62
2018-02-04T16:57:56.654Z,73.42
2018-02-04T17:00:23.375Z,73.99
2018-02-04T17:02:50.027Z,73.83
2018-02-04T17:05:16.674Z,74.03
2018-02-04T17:07:43.381Z,74.09
2018-02-04T17:10:10.024Z,74.05
2018-02-04T17:12:36.647Z,74.36
2018-02-04T17:15:04.075Z,75.06
2018-02-04T17:17:30.669Z,75.17
2018-02-04T17:19:58.406Z,75.51
2018-02-04T17:22:25.074Z,76.02
2018-02-04T17:24:51.937Z,75.94
2018-02-04T17:27:18.555Z,76.43
2018-02-04T17:29:45.205Z,75.51
2018-02-04T17:32:11.897Z,75.32
2018-02-04T17:34:38.607Z,75.06
2018-02-04T17:37:05.212Z,75.15
2018-02-04T17:39:31.864Z,75.11
2018-02-04T17:41:58.530Z,75.62
2018-02-04T17:44:25.173Z,75.46
2018-02-04T17:46:52.638Z,75.31
2018-02-04T17:49:20.052Z,75.22
2018-02-04T17:51:46.839Z,75.04
2018-02-04T17:54:13.586Z,75.66
2018-02-04T17:56:40.960Z,76.04
2018-02-04T17:59:07.780Z,76.11
2018-02-04T18:01:35.259Z,76.01
2018-02-04T18:04:01.883Z,76.09
2018-02-04T18:06:28.562Z,76.27
2018-02-04T18:08:55.186Z,76.73
2018-02-04T18:11:22.079Z,76.32
2018-02-04T18:13:48.682Z,76.67
2018-02-04T18:16:15.286Z,77.03
2018-02-04T18:18:42.039Z,76.81
2018-02-04T18:21:08.695Z,77.09
2018-02-04T18:23:35.381Z,77.05
2018-02-04T18:26:02.139Z,77.25
2018-02-04T18:28:28.792Z,77.87
2018-02-04T18:30:55.459Z,77.89
2018-02-04T18:33:22.278Z,77.66
2018-02-04T18:35:49.049Z,78.13
2018-02-04T18:38:15.729Z,78.01
2018-02-04T18:40:42.447Z,78.60
2018-02-04T18:43:09.133Z,78.50
2018-02-04T18:45:35.804Z,78.60
2018-02-04T18:48:03.238Z,78.57
2018-02-04T18:50:29.950Z,78.60
2018-02-04T18:52:56.611Z,78.30
2018-02-04T18:55:24.611Z,78.59
2018-02-04T18:57:51.287Z,78.27
2018-02-04T19:00:17.966Z,78.93
2018-02-04T19:02:45.493Z,78.95
2018-02-04T19:05:12.988Z,79.03
2018-02-04T19:07:39.693Z,78.34
2018-02-04T19:10:06.404Z,78.94
2018-02-04T19:12:33.157Z,79.20
2018-02-04T19:14:59.819Z,78.82
2018-02-04T19:17:26.567Z,79.00
2018-02-04T19:19:53.192Z,79.21
2018-02-04T19:22:19.803Z,79.35
2018-02-04T19:24:46.433Z,79.50
2018-02-04T19:27:13.082Z,78.98
2018-02-04T19:29:39.780Z,78.90
2018-02-04T19:32:06.730Z,79.15
2018-02-04T19:34:34.132Z,79.69
2018-02-04T19:37:00.880Z,79.48
2018-02-04T19:39:27.480Z,80.09
2018-02-04T19:41:55.016Z,80.69
2018-02-04T19:44:21.674Z,80.83
2018-02-04T19:46:48.339Z,80.60
2018-02-04T19:49:15.375Z,80.78
2018-02-04T19:51:41.999Z,80.81
2018-02-04T19:54:08.627Z,80.68
2018-02-04T19:56:35.378Z,80.20
2018-02-04T19:59:02.897Z,80.17
2018-02-04T20:01:29.621Z,80.50
2018-02-04T20:03:56.246Z,80.33
2018-02-04T20:06:22.975Z,80.50
2018-02-04T20:08:49.587Z,80.48
2018-02-04T20:11:16.172Z,80.27
2018-02-04T20:13:42.804Z,80.23
2018-02-04T20:16:09.431Z,80.31
2018-02-04T20:18:36.086Z,80.04
2018-02-04T20:21:02.732Z,80.03
2018-02-04T20:23:29.386Z,80.63
2018-02-04T20:25:55.997Z,80.41
2018-02-04T20:28:22.604Z,80.10
2018-02-04T20:30:49.311Z,80.67
2018-02-04T20:33:22.051Z,80.56
2018-02-04T20:35:48.774Z,80.80
2018-02-04T20:38:15.480Z,80.92
2018-02-04T20:40:42.141Z,80.95
2018-02-04T20:43:08.786Z,80.95
2018-02-04T20:45:36.205Z,80.71
2018-02-04T20:48:03.646Z,80.30
2018-02-04T20:50:31.067Z,80.38
2018-02-04T20:52:57.719Z,80.23
2018-02-04T20:55:24.371Z,80.52
2018-02-04T20:57:51.069Z,80.06
2018-02-04T21:00:17.775Z,80.08
2018-02-04T21:02:44.443Z,80.43
2018-02-04T21:05:11.955Z,80.71
2018-02-04T21:07:39.083Z,80.58
2018-02-04T21:10:05.760Z,80.74
2018-02-04T21:12:32.478Z,80.80
2018-02-04T21:14:59.120Z,80.64
2018-02-04T21:17:25.807Z,80.65
2018-02-04T21:19:52.486Z,80.36
2018-02-04T21:22:19.943Z,80.50
2018-02-04T21:24:46.639Z,80.68
2018-02-04T21:27:14.022Z,80.55
2018-02-04T21:29:40.741Z,80.46
2018-02-04T21:32:07.338Z,80.10
2018-02-04T21:34:33.948Z,79.94
2018-02-04T21:37:01.575Z,79.95
2018-02-04T21:39:28.252Z,80.11
2018-02-04T21:41:54.890Z,80.19
2018-02-04T21:44:21.552Z,80.62
2018-02-04T21:46:48.243Z,80.61
2018-02-04T21:49:14.864Z,80.76
2018-02-04T21:51:41.595Z,79.73
2018-02-04T21:54:09.560Z,80.41
2018-02-04T21:56:36.189Z,80.36
2018-02-04T21:59:03.662Z,80.27
2018-02-04T22:01:30.269Z,80.57
2018-02-04T22:03:56.938Z,80.40
2018-02-04T22:06:24.327Z,80.49
2018-02-04T22:08:50.928Z,80.46
2018-02-04T22:11:17.579Z,80.58
2018-02-04T22:13:44.557Z,80.64
2018-02-04T22:16:11.172Z,80.52
2018-02-04T22:18:37.913Z,80.40
2018-02-04T22:21:04.546Z,80.48
2018-02-04T22:23:31.210Z,80.41
2018-02-04T22:25:57.905Z,80.68
2018-02-04T22:28:24.572Z,80.77
2018-02-04T22:30:51.266Z,80.62
2018-02-04T22:33:17.864Z,81.06
2018-02-04T22:35:44.673Z,80.96
2018-02-04T22:38:11.303Z,80.83
2018-02-04T22:40:37.885Z,80.96
2018-02-04T22:43:04.592Z,80.60
2018-02-04T22:45:31.320Z,80.62
2018-02-04T22:47:58.402Z,80.65
2018-02-04T22:50:25.799Z,80.55
2018-02-04T22:52:53.179Z,80.42
2018-02-04T22:55:19.846Z,80.67
2018-02-04T22:57:46.459Z,80.39
2018-02-04T23:00:13.074Z,80.36
2018-02-04T23:02:39.827Z,80.29
2018-02-04T23:05:06.502Z,80.21
2018-02-04T23:07:33.154Z,80.15
2018-02-04T23:09:59.757Z,80.23
2018-02-04T23:12:26.333Z,80.08
2018-02-04T23:14:52.926Z,80.05
2018-02-04T23:17:19.761Z,80.26
2018-02-04T23:19:46.441Z,80.67
2018-02-04T23:22:13.818Z,80.54
2018-02-04T23:24:41.214Z,81.13
2018-02-04T23:27:07.802Z,81.15
2018-02-04T23:29:34.392Z,81.01
2018-02-04T23:32:01.169Z,80.63
2018-02-04T23:34:27.746Z,80.76
2018-02-04T23:36:55.138Z,80.52
2018-02-04T23:39:21.994Z,80.89
2018-02-04T23:41:48.588Z,81.00
2018-02-04T23:44:15.182Z,80.71
2018-02-04T23:46:41.797Z,81.08
2018-02-04T23:49:08.401Z,81.22
2018-02-04T23:51:35.005Z,81.26
2018-02-04T23:54:01.614Z,81.24
2018-02-04T23:56:28.238Z,81.03
2018-02-04T23:58:54.801Z,81.07
